createdAt,value
2017-12-20T00:00:51.871Z,12.78
2017-12-20T00:01:51.803Z,12.70
2017-12-20T00:02:51.771Z,12.70
2017-12-20T00:03:51.713Z,12.70
2017-12-20T00:04:51.653Z,12.70
2017-12-20T00:05:51.636Z,12.60
2017-12-20T00:06:51.571Z,13.07
2017-12-20T00:07:51.556Z,12.88
2017-12-20T00:08:51.485Z,12.88
2017-12-20T00:09:51.452Z,12.88
2017-12-20T00:10:51.388Z,12.88
2017-12-20T00:11:51.358Z,12.79
2017-12-20T00:12:51.299Z,12.88
2017-12-20T00:13:51.275Z,12.97
2017-12-20T00:14:51.210Z,12.88
2017-12-20T00:15:51.160Z,12.79
2017-12-20T00:16:51.109Z,12.88
2017-12-20T00:17:51.069Z,12.97
2017-12-20T00:18:51.077Z,13.17
2017-12-20T00:19:50.985Z,13.17
2017-12-20T00:20:50.936Z,13.07
2017-12-20T00:21:50.883Z,13.17
2017-12-20T00:22:50.845Z,13.17
2017-12-20T00:23:50.797Z,12.98
2017-12-20T00:24:50.746Z,13.07
2017-12-20T00:25:50.717Z,13.45
2017-12-20T00:26:50.666Z,13.64
2017-12-20T00:27:50.614Z,13.35
2017-12-20T00:28:50.572Z,13.64
2017-12-20T00:29:50.534Z,13.54
2017-12-20T00:30:50.485Z,13.64
2017-12-20T00:31:50.475Z,13.64
2017-12-20T00:32:50.400Z,13.64
2017-12-20T00:33:50.348Z,13.64
2017-12-20T00:34:50.307Z,13.64
2017-12-20T00:35:50.258Z,13.64
2017-12-20T00:36:50.206Z,13.64
2017-12-20T00:37:50.155Z,13.45
2017-12-20T00:38:50.108Z,13.54
2017-12-20T00:39:50.070Z,13.54
2017-12-20T00:40:50.021Z,13.82
2017-12-20T00:41:50.036Z,13.73
2017-12-20T00:42:49.921Z,13.54
2017-12-20T00:43:49.884Z,13.54
2017-12-20T00:44:49.833Z,13.54
2017-12-20T00:45:49.791Z,13.83
2017-12-20T00:46:49.749Z,13.82
2017-12-20T00:47:49.693Z,13.82
2017-12-20T00:48:49.650Z,14.11
2017-12-20T00:49:49.600Z,14.02
2017-12-20T00:50:49.558Z,14.01
2017-12-20T00:51:49.525Z,13.83
2017-12-20T00:52:49.487Z,13.73
2017-12-20T00:53:49.427Z,13.82
2017-12-20T00:54:49.385Z,13.83
2017-12-20T00:55:49.333Z,14.02
2017-12-20T00:56:49.344Z,13.83
2017-12-20T00:57:49.245Z,14.02
2017-12-20T00:58:49.199Z,13.64
2017-12-20T00:59:49.150Z,14.11
2017-12-20T01:00:49.113Z,14.59
2017-12-20T01:01:49.070Z,14.48
2017-12-20T01:02:49.026Z,14.29
2017-12-20T01:03:48.983Z,14.58
2017-12-20T01:04:48.953Z,14.39
2017-12-20T01:05:48.884Z,14.20
2017-12-20T01:06:48.840Z,14.50
2017-12-20T01:07:48.820Z,14.59
2017-12-20T01:08:48.761Z,14.86
2017-12-20T01:09:48.698Z,15.06
2017-12-20T01:10:48.682Z,14.97
2017-12-20T01:11:48.611Z,14.97
2017-12-20T01:12:48.564Z,15.05
2017-12-20T01:13:48.512Z,14.86
2017-12-20T01:14:48.475Z,15.06
2017-12-20T01:15:48.420Z,15.06
2017-12-20T01:16:48.385Z,15.34
2017-12-20T01:17:48.341Z,15.25
2017-12-20T01:18:48.327Z,14.97
2017-12-20T01:19:48.241Z,15.16
2017-12-20T01:20:48.199Z,14.87
2017-12-20T01:21:48.159Z,14.86
2017-12-20T01:22:48.104Z,15.34
2017-12-20T01:23:48.058Z,15.63
2017-12-20T01:24:48.010Z,15.44
2017-12-20T01:25:47.963Z,15.53
2017-12-20T01:26:47.923Z,15.53
2017-12-20T01:27:47.881Z,15.53
2017-12-20T01:28:47.839Z,15.53
2017-12-20T01:29:47.785Z,15.63
2017-12-20T01:30:47.752Z,15.53
2017-12-20T01:31:47.704Z,15.34
2017-12-20T01:32:47.652Z,15.53
2017-12-20T01:33:47.599Z,15.63
2017-12-20T01:34:47.556Z,15.72
2017-12-20T01:35:47.520Z,15.72
2017-12-20T01:36:47.468Z,15.72
2017-12-20T01:37:47.424Z,15.72
2017-12-20T01:38:47.373Z,15.81
2017-12-20T01:39:47.335Z,15.63
2017-12-20T01:40:47.314Z,15.72
2017-12-20T01:41:47.240Z,15.72
2017-12-20T01:42:47.194Z,15.82
2017-12-20T01:43:47.156Z,15.82
2017-12-20T01:44:47.102Z,15.91
2017-12-20T01:45:47.057Z,15.91
2017-12-20T01:46:47.010Z,15.63
2017-12-20T01:47:46.968Z,15.63
2017-12-20T01:48:46.918Z,16.00
2017-12-20T01:49:46.870Z,15.82
2017-12-20T01:50:46.845Z,16.00
2017-12-20T01:51:46.784Z,15.82
2017-12-20T01:52:46.738Z,15.91
2017-12-20T01:53:46.690Z,16.10
2017-12-20T01:54:46.641Z,15.82
2017-12-20T01:55:46.604Z,15.82
2017-12-20T01:56:46.561Z,15.91
2017-12-20T01:57:46.520Z,15.72
2017-12-20T01:58:46.464Z,15.72
2017-12-20T01:59:46.422Z,16.30
2017-12-20T02:00:46.376Z,16.20
2017-12-20T02:01:46.334Z,16.01
2017-12-20T02:02:46.282Z,16.20
2017-12-20T02:03:46.244Z,16.20
2017-12-20T02:04:46.195Z,16.19
2017-12-20T02:05:46.164Z,16.10
2017-12-20T02:06:46.108Z,16.01
2017-12-20T02:07:46.064Z,16.10
2017-12-20T02:08:46.018Z,16.01
2017-12-20T02:09:45.979Z,16.01
2017-12-20T02:10:45.918Z,16.10
2017-12-20T02:11:45.888Z,16.00
2017-12-20T02:12:45.830Z,16.09
2017-12-20T02:13:45.799Z,16.30
2017-12-20T02:14:45.742Z,16.30
2017-12-20T02:15:45.707Z,15.91
2017-12-20T02:16:45.664Z,15.91
2017-12-20T02:17:45.623Z,15.91
2017-12-20T02:18:45.573Z,15.81
2017-12-20T02:19:45.526Z,15.81
2017-12-20T02:20:45.469Z,16.01
2017-12-20T02:21:45.418Z,16.09
2017-12-20T02:22:45.378Z,15.72
2017-12-20T02:23:45.356Z,15.91
2017-12-20T02:24:45.294Z,16.01
2017-12-20T02:25:45.282Z,15.82
2017-12-20T02:26:45.203Z,15.63
2017-12-20T02:27:45.179Z,15.53
2017-12-20T02:28:45.117Z,15.53
2017-12-20T02:29:45.066Z,15.81
2017-12-20T02:30:45.016Z,16.00
2017-12-20T02:31:44.965Z,15.63
2017-12-20T02:32:44.929Z,15.72
2017-12-20T02:33:44.878Z,15.72
2017-12-20T02:34:44.836Z,15.82
2017-12-20T02:35:44.788Z,15.72
2017-12-20T02:36:44.751Z,15.82
2017-12-20T02:37:44.694Z,15.82
2017-12-20T02:38:44.664Z,15.91
2017-12-20T02:39:44.611Z,15.72
2017-12-20T02:40:44.572Z,15.72
2017-12-20T02:41:44.513Z,15.82
2017-12-20T02:42:44.473Z,15.82
2017-12-20T02:43:44.428Z,15.72
2017-12-20T02:44:44.389Z,15.82
2017-12-20T02:45:44.330Z,15.63
2017-12-20T02:46:44.304Z,15.91
2017-12-20T02:47:44.239Z,15.72
2017-12-20T02:48:44.212Z,15.72
2017-12-20T02:49:44.161Z,15.72
2017-12-20T02:50:44.126Z,15.91
2017-12-20T02:51:44.069Z,15.53
2017-12-20T02:52:44.036Z,15.53
2017-12-20T02:53:43.964Z,14.97
2017-12-20T02:54:43.932Z,15.15
2017-12-20T02:55:43.962Z,15.25
2017-12-20T02:56:43.847Z,15.25
2017-12-20T02:57:43.790Z,15.53
2017-12-20T02:58:43.751Z,15.05
2017-12-20T02:59:43.693Z,14.97
2017-12-20T03:00:43.667Z,14.97
2017-12-20T03:01:43.619Z,14.96
2017-12-20T03:02:43.578Z,14.87
2017-12-20T03:03:43.517Z,14.67
2017-12-20T03:04:43.488Z,14.77
2017-12-20T03:05:43.432Z,14.87
2017-12-20T03:06:43.390Z,14.58
2017-12-20T03:07:43.346Z,14.67
2017-12-20T03:08:43.297Z,14.58
2017-12-20T03:09:43.308Z,14.59
2017-12-20T03:10:43.209Z,14.48
2017-12-20T03:11:43.156Z,14.40
2017-12-20T03:12:43.120Z,14.58
2017-12-20T03:13:43.056Z,14.69
2017-12-20T03:14:43.018Z,14.58
2017-12-20T03:15:43.003Z,14.67
2017-12-20T03:16:42.960Z,14.59
2017-12-20T03:17:42.897Z,14.39
2017-12-20T03:18:42.826Z,14.59
2017-12-20T03:19:42.801Z,14.40
2017-12-20T03:20:42.752Z,14.31
2017-12-20T03:21:42.699Z,14.50
2017-12-20T03:22:42.656Z,14.69
2017-12-20T03:23:42.657Z,14.50
2017-12-20T03:24:42.558Z,14.48
2017-12-20T03:25:42.530Z,14.50
2017-12-20T03:26:42.490Z,14.69
2017-12-20T03:27:42.440Z,14.77
2017-12-20T03:28:42.378Z,14.48
2017-12-20T03:29:42.347Z,14.50
2017-12-20T03:30:42.307Z,14.29
2017-12-20T03:31:42.260Z,14.40
2017-12-20T03:32:42.216Z,14.50
2017-12-20T03:33:42.151Z,14.39
2017-12-20T03:34:42.114Z,14.29
2017-12-20T03:35:42.098Z,14.48
2017-12-20T03:36:42.017Z,14.39
2017-12-20T03:37:41.981Z,14.29
2017-12-20T03:38:41.945Z,14.11
2017-12-20T03:39:41.875Z,14.29
2017-12-20T03:40:41.842Z,14.20
2017-12-20T03:41:41.786Z,14.31
2017-12-20T03:42:41.745Z,14.31
2017-12-20T03:43:41.701Z,13.73
2017-12-20T03:44:41.639Z,13.64
2017-12-20T03:45:41.607Z,13.73
2017-12-20T03:46:41.568Z,14.02
2017-12-20T03:47:41.515Z,14.02
2017-12-20T03:48:41.467Z,13.92
2017-12-20T03:49:41.419Z,13.83
2017-12-20T03:50:41.386Z,13.83
2017-12-20T03:51:41.342Z,13.92
2017-12-20T03:52:41.297Z,13.73
2017-12-20T03:53:41.279Z,13.83
2017-12-20T03:54:41.199Z,14.01
2017-12-20T03:55:41.153Z,14.21
2017-12-20T03:56:41.111Z,13.64
2017-12-20T03:57:41.057Z,13.54
2017-12-20T03:58:41.009Z,13.45
2017-12-20T03:59:40.979Z,13.82
2017-12-20T04:00:40.929Z,13.92
2017-12-20T04:01:40.877Z,13.92
2017-12-20T04:02:40.848Z,13.92
2017-12-20T04:03:40.785Z,13.73
2017-12-20T04:04:40.745Z,13.54
2017-12-20T04:05:40.703Z,13.54
2017-12-20T04:06:40.655Z,13.82
2017-12-20T04:07:40.639Z,13.82
2017-12-20T04:08:40.556Z,13.82
2017-12-20T04:09:40.518Z,13.92
2017-12-20T04:10:40.462Z,13.82
2017-12-20T04:11:40.407Z,14.01
2017-12-20T04:12:40.378Z,13.92
2017-12-20T04:13:40.342Z,13.82
2017-12-20T04:14:40.282Z,14.20
2017-12-20T04:15:40.241Z,14.29
2017-12-20T04:16:40.202Z,14.39
2017-12-20T04:17:40.139Z,14.39
2017-12-20T04:18:40.113Z,14.29
2017-12-20T04:19:40.055Z,14.39
2017-12-20T04:20:40.018Z,14.67
2017-12-20T04:21:39.963Z,14.48
2017-12-20T04:22:39.928Z,14.29
2017-12-20T04:23:39.878Z,14.39
2017-12-20T04:24:39.833Z,14.48
2017-12-20T04:25:39.787Z,14.67
2017-12-20T04:26:39.751Z,14.67
2017-12-20T04:27:39.689Z,14.58
2017-12-20T04:28:39.645Z,14.39
2017-12-20T04:29:39.599Z,14.67
2017-12-20T04:30:39.558Z,14.48
2017-12-20T04:31:39.525Z,14.58
2017-12-20T04:32:39.465Z,14.58
2017-12-20T04:33:39.422Z,14.48
2017-12-20T04:34:39.369Z,14.48
2017-12-20T04:35:39.328Z,14.48
2017-12-20T04:36:39.285Z,14.48
2017-12-20T04:37:39.239Z,14.67
2017-12-20T04:38:39.210Z,14.58
2017-12-20T04:39:39.157Z,14.67
2017-12-20T04:40:39.097Z,14.39
2017-12-20T04:41:39.064Z,14.67
2017-12-20T04:42:39.021Z,14.67
2017-12-20T04:43:38.990Z,14.67
2017-12-20T04:44:38.936Z,14.96
2017-12-20T04:45:38.889Z,14.86
2017-12-20T04:46:38.843Z,14.77
2017-12-20T04:47:38.782Z,14.86
2017-12-20T04:48:38.752Z,14.86
2017-12-20T04:49:38.685Z,14.86
2017-12-20T04:50:38.659Z,14.96
2017-12-20T04:51:38.599Z,14.96
2017-12-20T04:52:38.563Z,14.96
2017-12-20T04:53:38.514Z,14.86
2017-12-20T04:54:38.473Z,15.05
2017-12-20T04:55:38.426Z,14.96
2017-12-20T04:56:38.376Z,14.77
2017-12-20T04:57:38.332Z,14.96
2017-12-20T04:58:38.310Z,14.96
2017-12-20T04:59:38.238Z,14.96
2017-12-20T05:00:38.202Z,14.96
2017-12-20T05:01:38.159Z,14.96
2017-12-20T05:02:38.117Z,14.96
2017-12-20T05:03:38.063Z,14.96
2017-12-20T05:04:38.037Z,14.96
2017-12-20T05:05:37.976Z,14.96
2017-12-20T05:06:37.941Z,15.15
2017-12-20T05:07:37.885Z,14.96
2017-12-20T05:08:37.842Z,14.96
2017-12-20T05:09:37.792Z,15.25
2017-12-20T05:10:37.744Z,14.86
2017-12-20T05:11:37.691Z,14.86
2017-12-20T05:12:37.670Z,15.05
2017-12-20T05:13:37.603Z,15.44
2017-12-20T05:14:37.563Z,15.34
2017-12-20T05:15:37.524Z,15.25
2017-12-20T05:16:37.472Z,15.25
2017-12-20T05:17:37.429Z,15.15
2017-12-20T05:18:37.389Z,15.15
2017-12-20T05:19:37.344Z,15.34
2017-12-20T05:20:37.280Z,15.15
2017-12-20T05:21:37.239Z,15.25
2017-12-20T05:22:37.198Z,15.15
2017-12-20T05:23:37.149Z,15.15
2017-12-20T05:24:37.106Z,15.15
2017-12-20T05:25:37.064Z,15.15
2017-12-20T05:26:37.030Z,15.25
2017-12-20T05:27:36.969Z,14.96
2017-12-20T05:28:36.920Z,15.34
2017-12-20T05:29:36.867Z,15.34
2017-12-20T05:30:36.848Z,15.34
2017-12-20T05:31:36.802Z,15.25
2017-12-20T05:32:36.747Z,15.44
2017-12-20T05:33:36.721Z,15.53
2017-12-20T05:34:36.660Z,15.53
2017-12-20T05:35:36.627Z,15.72
2017-12-20T05:36:36.563Z,15.44
2017-12-20T05:37:36.538Z,15.72
2017-12-20T05:38:36.482Z,15.72
2017-12-20T05:39:36.428Z,15.81
2017-12-20T05:40:36.383Z,15.63
2017-12-20T05:41:36.361Z,16.00
2017-12-20T05:42:36.279Z,15.72
2017-12-20T05:43:36.242Z,15.72
2017-12-20T05:44:36.197Z,15.63
2017-12-20T05:45:36.167Z,15.91
2017-12-20T05:46:36.116Z,15.53
2017-12-20T05:47:36.065Z,14.96
2017-12-20T05:48:36.011Z,14.96
2017-12-20T05:49:35.994Z,15.15
2017-12-20T05:50:35.919Z,15.25
2017-12-20T05:51:35.884Z,15.25
2017-12-20T05:52:35.835Z,15.25
2017-12-20T05:53:35.830Z,14.96
2017-12-20T05:54:35.748Z,15.15
2017-12-20T05:55:35.709Z,14.96
2017-12-20T05:56:35.646Z,14.96
2017-12-20T05:57:35.602Z,15.15
2017-12-20T05:58:35.553Z,15.05
2017-12-20T05:59:35.518Z,15.05
2017-12-20T06:00:35.468Z,15.05
2017-12-20T06:01:35.413Z,15.05
2017-12-20T06:02:35.442Z,14.96
2017-12-20T06:03:35.346Z,15.05
2017-12-20T06:04:35.287Z,14.67
2017-12-20T06:05:35.234Z,15.05
2017-12-20T06:06:35.194Z,15.34
2017-12-20T06:07:35.204Z,15.44
2017-12-20T06:08:35.107Z,15.15
2017-12-20T06:09:35.057Z,15.15
2017-12-20T06:10:35.019Z,15.34
2017-12-20T06:11:34.964Z,15.25
2017-12-20T06:12:34.920Z,15.25
2017-12-20T06:13:34.880Z,15.15
2017-12-20T06:14:34.840Z,15.15
2017-12-20T06:15:34.782Z,15.15
2017-12-20T06:16:34.738Z,15.05
2017-12-20T06:17:34.686Z,15.15
2017-12-20T06:18:34.653Z,15.05
2017-12-20T06:19:34.591Z,15.15
2017-12-20T06:20:34.562Z,15.15
2017-12-20T06:21:34.504Z,15.05
2017-12-20T06:22:34.474Z,15.05
2017-12-20T06:23:34.456Z,15.15
2017-12-20T06:24:34.402Z,15.05
2017-12-20T06:25:34.343Z,15.15
2017-12-20T06:26:34.296Z,15.25
2017-12-20T06:27:34.236Z,15.34
2017-12-20T06:28:34.195Z,15.63
2017-12-20T06:29:34.138Z,15.44
2017-12-20T06:30:34.109Z,15.53
2017-12-20T06:31:34.060Z,15.72
2017-12-20T06:32:34.012Z,15.91
2017-12-20T06:33:33.964Z,15.91
2017-12-20T06:34:33.942Z,15.72
2017-12-20T06:35:33.893Z,15.81
2017-12-20T06:36:33.840Z,15.63
2017-12-20T06:37:33.798Z,15.72
2017-12-20T06:38:33.746Z,15.72
2017-12-20T06:39:33.700Z,16.19
2017-12-20T06:40:33.654Z,16.19
2017-12-20T06:41:33.600Z,15.91
2017-12-20T06:42:33.569Z,16.00
2017-12-20T06:43:33.521Z,15.91
2017-12-20T06:44:33.472Z,15.91
2017-12-20T06:45:33.419Z,16.47
2017-12-20T06:46:33.370Z,16.00
2017-12-20T06:47:33.326Z,15.91
2017-12-20T06:48:33.288Z,16.09
2017-12-20T06:49:33.239Z,15.91
2017-12-20T06:50:33.191Z,16.00
2017-12-20T06:51:33.151Z,15.91
2017-12-20T06:52:33.104Z,16.47
2017-12-20T06:53:33.067Z,16.47
2017-12-20T06:54:33.012Z,16.09
2017-12-20T06:55:32.982Z,16.57
2017-12-20T06:56:32.910Z,16.38
2017-12-20T06:57:32.873Z,16.38
2017-12-20T06:58:32.833Z,16.38
2017-12-20T06:59:32.777Z,16.57
2017-12-20T07:00:32.739Z,16.57
2017-12-20T07:01:32.703Z,16.57
2017-12-20T07:02:32.655Z,16.38
2017-12-20T07:03:32.601Z,16.47
2017-12-20T07:04:32.549Z,16.57
2017-12-20T07:05:32.515Z,16.47
2017-12-20T07:06:32.474Z,16.38
2017-12-20T07:07:32.429Z,16.47
2017-12-20T07:08:32.380Z,16.47
2017-12-20T07:09:32.327Z,16.57
2017-12-20T07:10:32.277Z,16.38
2017-12-20T07:11:32.237Z,16.19
2017-12-20T07:12:32.189Z,16.38
2017-12-20T07:13:32.143Z,16.57
2017-12-20T07:14:32.093Z,16.28
2017-12-20T07:15:32.056Z,16.28
2017-12-20T07:16:32.014Z,16.28
2017-12-20T07:17:32.022Z,16.28
2017-12-20T07:18:31.913Z,16.38
2017-12-20T07:19:31.864Z,16.57
2017-12-20T07:20:31.817Z,16.38
2017-12-20T07:21:31.786Z,16.28
2017-12-20T07:22:31.736Z,16.38
2017-12-20T07:23:31.707Z,16.76
2017-12-20T07:24:31.651Z,16.66
2017-12-20T07:25:31.591Z,16.28
2017-12-20T07:26:31.553Z,16.19
2017-12-20T07:27:31.506Z,16.47
2017-12-20T07:28:31.461Z,16.57
2017-12-20T07:29:31.421Z,16.38
2017-12-20T07:30:31.374Z,16.28
2017-12-20T07:31:31.335Z,16.38
2017-12-20T07:32:31.286Z,16.28
2017-12-20T07:33:31.238Z,16.09
2017-12-20T07:34:31.197Z,16.19
2017-12-20T07:35:31.219Z,16.19
2017-12-20T07:36:31.127Z,16.00
2017-12-20T07:37:31.058Z,16.00
2017-12-20T07:38:31.024Z,15.91
2017-12-20T07:39:30.968Z,15.63
2017-12-20T07:40:30.918Z,15.72
2017-12-20T07:41:30.900Z,15.81
2017-12-20T07:42:30.816Z,15.34
2017-12-20T07:43:30.775Z,15.15
2017-12-20T07:44:30.725Z,15.15
2017-12-20T07:45:30.676Z,15.25
2017-12-20T07:46:30.628Z,15.25
2017-12-20T07:47:30.589Z,15.15
2017-12-20T07:48:30.546Z,14.86
2017-12-20T07:49:30.516Z,14.29
2017-12-20T07:50:30.463Z,14.77
2017-12-20T07:51:30.420Z,13.82
2017-12-20T07:52:30.362Z,13.82
2017-12-20T07:53:30.326Z,13.64
2017-12-20T07:54:30.275Z,13.26
2017-12-20T07:55:30.236Z,13.35
2017-12-20T07:56:30.195Z,12.78
2017-12-20T07:57:30.141Z,12.78
2017-12-20T07:58:30.106Z,12.31
2017-12-20T07:59:30.064Z,12.21
2017-12-20T08:00:30.025Z,12.40
2017-12-20T08:01:29.959Z,12.31
2017-12-20T08:02:29.958Z,11.93
2017-12-20T08:03:29.868Z,11.74
2017-12-20T08:04:29.827Z,11.74
2017-12-20T08:05:29.771Z,10.98
2017-12-20T08:06:29.743Z,10.51
2017-12-20T08:07:29.689Z,10.70
2017-12-20T08:08:29.644Z,10.70
2017-12-20T08:09:29.676Z,10.41
2017-12-20T08:10:29.557Z,10.41
2017-12-20T08:11:29.517Z,9.94
2017-12-20T08:12:29.489Z,10.03
2017-12-20T08:13:29.444Z,9.94
2017-12-20T08:14:29.388Z,9.75
2017-12-20T08:15:29.326Z,9.38
2017-12-20T08:16:29.289Z,9.28
2017-12-20T08:17:29.237Z,8.71
2017-12-20T08:18:29.202Z,8.52
2017-12-20T08:19:29.144Z,8.33
2017-12-20T08:20:29.119Z,7.95
2017-12-20T08:21:29.082Z,7.76
2017-12-20T08:22:29.040Z,7.39
2017-12-20T08:23:28.981Z,7.29
2017-12-20T08:24:28.926Z,7.39
2017-12-20T08:25:28.883Z,7.10
2017-12-20T08:26:28.851Z,6.92
2017-12-20T08:27:28.849Z,6.44
2017-12-20T08:28:28.753Z,6.16
2017-12-20T08:29:28.702Z,5.77
2017-12-20T08:30:28.676Z,5.96
2017-12-20T08:31:28.606Z,5.49
2017-12-20T08:32:28.577Z,5.21
2017-12-20T08:33:28.557Z,5.40
2017-12-20T08:34:28.469Z,5.02
2017-12-20T08:35:28.451Z,4.36
2017-12-20T08:36:28.405Z,4.17
2017-12-20T08:37:28.345Z,3.03
2017-12-20T08:38:28.315Z,2.94
2017-12-20T08:39:28.250Z,2.65
2017-12-20T08:40:28.206Z,2.37
2017-12-20T08:41:28.170Z,2.46
2017-12-20T08:42:28.118Z,2.18
2017-12-20T08:43:28.081Z,1.89
2017-12-20T08:44:28.021Z,1.98
2017-12-20T08:45:27.991Z,1.79
2017-12-20T08:46:27.933Z,1.14
2017-12-20T08:47:29.015Z,1.32
2017-12-20T08:48:27.876Z,1.04
2017-12-20T08:49:27.802Z,1.14
2017-12-20T08:50:27.762Z,0.85
2017-12-20T08:51:27.726Z,0.76
2017-12-20T08:52:27.660Z,0.66
2017-12-20T08:53:27.655Z,0.00
2017-12-20T08:54:27.582Z,0.28
2017-12-20T08:55:27.583Z,0.47
2017-12-20T08:56:27.501Z,0.47
2017-12-20T08:57:27.425Z,0.00
2017-12-20T08:58:27.422Z,0.09
2017-12-20T08:59:27.369Z,0.00
2017-12-20T09:00:27.315Z,0.00
2017-12-20T09:01:27.272Z,0.00
2017-12-20T09:02:27.227Z,0.00
2017-12-20T09:03:27.198Z,0.00
2017-12-20T09:04:27.170Z,0.00
2017-12-20T09:05:27.120Z,0.00
2017-12-20T09:06:27.048Z,0.00
2017-12-20T09:07:27.073Z,0.00
2017-12-20T09:08:26.995Z,0.00
2017-12-20T09:09:26.927Z,0.00
2017-12-20T09:10:26.890Z,0.00
2017-12-20T09:11:26.832Z,0.00
2017-12-20T09:12:26.813Z,0.00
2017-12-20T09:13:26.794Z,0.00
2017-12-20T09:14:26.708Z,0.00
2017-12-20T09:15:26.660Z,0.00
2017-12-20T09:16:26.639Z,0.00
2017-12-20T09:17:26.597Z,0.00
2017-12-20T09:18:26.534Z,0.00
2017-12-20T09:19:26.485Z,0.00
2017-12-20T09:20:26.433Z,4.83
2017-12-20T09:21:26.394Z,3.31
2017-12-20T09:22:26.340Z,2.27
2017-12-20T09:23:26.311Z,1.23
2017-12-20T09:24:26.279Z,2.37
2017-12-20T09:25:26.208Z,2.18
2017-12-20T09:26:26.190Z,1.23
2017-12-20T09:27:26.122Z,1.80
2017-12-20T09:28:26.108Z,1.70
2017-12-20T09:29:26.070Z,1.51
2017-12-20T09:30:26.003Z,2.18
2017-12-20T09:31:25.967Z,1.23
2017-12-20T09:32:25.923Z,1.42
2017-12-20T09:33:25.860Z,4.07
2017-12-20T09:34:25.829Z,3.31
2017-12-20T09:35:25.796Z,2.56
2017-12-20T09:36:25.744Z,5.78
2017-12-20T09:37:25.697Z,10.33
2017-12-20T09:38:25.656Z,7.68
2017-12-20T09:39:25.620Z,5.78
2017-12-20T09:40:25.566Z,4.83
2017-12-20T09:41:25.520Z,4.55
2017-12-20T09:42:25.467Z,7.29
2017-12-20T09:43:25.436Z,6.92
2017-12-20T09:44:25.380Z,5.87
2017-12-20T09:45:25.335Z,7.77
2017-12-20T09:46:25.294Z,8.81
2017-12-20T09:47:25.265Z,8.91
2017-12-20T09:48:25.199Z,7.77
2017-12-20T09:49:25.161Z,9.57
2017-12-20T09:50:25.148Z,7.77
2017-12-20T09:51:25.067Z,7.39
2017-12-20T09:52:25.042Z,8.06
2017-12-20T09:53:24.979Z,8.44
2017-12-20T09:54:24.944Z,10.05
2017-12-20T09:55:24.901Z,10.52
2017-12-20T09:56:24.862Z,12.23
2017-12-20T09:57:24.815Z,11.75
2017-12-20T09:58:24.788Z,12.89
2017-12-20T09:59:24.739Z,14.50
2017-12-20T10:00:24.702Z,14.22
2017-12-20T10:01:24.627Z,12.41
2017-12-20T10:02:24.600Z,10.14
2017-12-20T10:03:24.545Z,13.75
2017-12-20T10:04:24.510Z,17.35
2017-12-20T10:05:24.482Z,17.06
2017-12-20T10:06:24.418Z,15.92
2017-12-20T10:07:24.399Z,13.75
2017-12-20T10:08:24.333Z,15.84
2017-12-20T10:09:24.310Z,15.55
2017-12-20T10:10:24.263Z,15.55
2017-12-20T10:11:24.216Z,22.08
2017-12-20T10:12:24.158Z,19.34
2017-12-20T10:13:24.098Z,19.53
2017-12-20T10:14:24.064Z,17.44
2017-12-20T10:15:24.034Z,15.45
2017-12-20T10:16:23.979Z,12.23
2017-12-20T10:17:23.945Z,12.14
2017-12-20T10:18:23.892Z,18.40
2017-12-20T10:19:23.832Z,25.40
2017-12-20T10:20:23.802Z,20.47
2017-12-20T10:21:23.795Z,21.24
2017-12-20T10:22:23.731Z,23.13
2017-12-20T10:23:23.682Z,20.66
2017-12-20T10:24:23.646Z,23.03
2017-12-20T10:25:23.591Z,19.24
2017-12-20T10:26:23.551Z,14.41
2017-12-20T10:27:23.539Z,21.23
2017-12-20T10:28:23.465Z,22.85
2017-12-20T10:29:23.425Z,23.13
2017-12-20T10:30:23.374Z,19.92
2017-12-20T10:31:23.334Z,17.64
2017-12-20T10:32:23.299Z,13.56
2017-12-20T10:33:23.269Z,12.61
2017-12-20T10:34:23.213Z,14.98
2017-12-20T10:35:23.165Z,28.36
2017-12-20T10:36:23.129Z,21.81
2017-12-20T10:37:23.075Z,20.86
2017-12-20T10:38:23.014Z,17.64
2017-12-20T10:39:22.988Z,36.61
2017-12-20T10:40:22.965Z,28.26
2017-12-20T10:41:22.908Z,24.28
2017-12-20T10:42:22.859Z,27.78
2017-12-20T10:43:22.819Z,31.20
2017-12-20T10:44:22.767Z,24.18
2017-12-20T10:45:22.741Z,21.34
2017-12-20T10:46:22.692Z,20.57
2017-12-20T10:47:22.632Z,23.24
2017-12-20T10:48:22.608Z,26.46
2017-12-20T10:49:22.565Z,21.91
2017-12-20T10:50:22.519Z,22.76
2017-12-20T10:51:22.484Z,24.18
2017-12-20T10:52:22.459Z,39.26
2017-12-20T10:53:22.378Z,30.82
2017-12-20T10:54:22.336Z,31.58
2017-12-20T10:55:22.303Z,33.95
2017-12-20T10:56:22.258Z,33.38
2017-12-20T10:57:22.223Z,29.21
2017-12-20T10:58:22.184Z,33.95
2017-12-20T10:59:22.160Z,29.02
2017-12-20T11:00:22.103Z,31.68
2017-12-20T11:01:22.049Z,26.36
2017-12-20T11:02:21.993Z,28.17
2017-12-20T11:03:21.957Z,22.00
2017-12-20T11:04:21.913Z,23.71
2017-12-20T11:05:21.863Z,24.28
2017-12-20T11:06:21.825Z,27.50
2017-12-20T11:07:21.796Z,29.11
2017-12-20T11:08:21.735Z,29.59
2017-12-20T11:09:21.689Z,30.25
2017-12-20T11:10:21.662Z,29.11
2017-12-20T11:11:21.669Z,25.98
2017-12-20T11:12:21.567Z,27.50
2017-12-20T11:13:21.526Z,25.51
2017-12-20T11:14:21.482Z,37.74
2017-12-20T11:15:21.447Z,32.62
2017-12-20T11:16:21.415Z,29.30
2017-12-20T11:17:21.354Z,30.06
2017-12-20T11:18:21.301Z,22.38
2017-12-20T11:19:21.284Z,25.98
2017-12-20T11:20:21.279Z,30.16
2017-12-20T11:21:21.200Z,29.59
2017-12-20T11:22:21.156Z,27.40
2017-12-20T11:23:21.097Z,29.68
2017-12-20T11:24:21.069Z,31.77
2017-12-20T11:25:21.015Z,31.87
2017-12-20T11:26:21.003Z,28.17
2017-12-20T11:27:20.929Z,27.50
2017-12-20T11:28:20.880Z,27.69
2017-12-20T11:29:20.848Z,28.64
2017-12-20T11:30:20.805Z,28.74
2017-12-20T11:31:20.749Z,33.00
2017-12-20T11:32:20.710Z,30.06
2017-12-20T11:33:20.692Z,29.98
2017-12-20T11:34:20.625Z,28.85
2017-12-20T11:35:20.576Z,28.64
2017-12-20T11:36:20.560Z,26.46
2017-12-20T11:37:20.495Z,31.77
2017-12-20T11:38:20.450Z,27.69
2017-12-20T11:39:20.442Z,24.28
2017-12-20T11:40:20.375Z,31.01
2017-12-20T11:41:20.333Z,40.21
2017-12-20T11:42:20.274Z,34.05
2017-12-20T11:43:20.245Z,35.85
2017-12-20T11:44:20.199Z,46.85
2017-12-20T11:45:20.158Z,39.54
2017-12-20T11:46:20.104Z,36.51
2017-12-20T11:47:20.063Z,36.05
2017-12-20T11:48:20.042Z,28.36
2017-12-20T11:49:19.988Z,25.32
2017-12-20T11:50:19.947Z,29.78
2017-12-20T11:51:19.892Z,28.92
2017-12-20T11:52:19.858Z,29.02
2017-12-20T11:53:19.824Z,30.17
2017-12-20T11:54:19.777Z,27.33
2017-12-20T11:55:19.723Z,36.22
2017-12-20T11:56:19.697Z,34.52
2017-12-20T11:57:19.634Z,30.73
2017-12-20T11:58:19.600Z,30.91
2017-12-20T11:59:19.556Z,28.17
2017-12-20T12:00:19.536Z,27.31
2017-12-20T12:01:19.463Z,29.68
2017-12-20T12:02:19.425Z,32.81
2017-12-20T12:03:19.391Z,27.59
2017-12-20T12:04:19.361Z,28.55
2017-12-20T12:05:19.321Z,30.73
2017-12-20T12:06:19.255Z,30.06
2017-12-20T12:07:19.226Z,29.02
2017-12-20T12:08:19.176Z,26.28
2017-12-20T12:09:19.134Z,27.99
2017-12-20T12:10:19.097Z,35.11
2017-12-20T12:11:19.047Z,31.60
2017-12-20T12:12:19.007Z,31.41
2017-12-20T12:13:18.963Z,35.18
2017-12-20T12:14:18.923Z,29.87
2017-12-20T12:15:18.901Z,24.75
2017-12-20T12:16:18.831Z,25.60
2017-12-20T12:17:18.799Z,19.73
2017-12-20T12:18:18.752Z,20.48
2017-12-20T12:19:18.712Z,21.15
2017-12-20T12:20:18.664Z,28.26
2017-12-20T12:21:18.606Z,31.96
2017-12-20T12:22:18.580Z,30.82
2017-12-20T12:23:18.559Z,31.58
2017-12-20T12:24:18.489Z,31.39
2017-12-20T12:25:18.448Z,32.15
2017-12-20T12:26:18.439Z,30.74
2017-12-20T12:27:18.377Z,29.98
2017-12-20T12:28:18.335Z,31.88
2017-12-20T12:29:18.285Z,31.69
2017-12-20T12:30:18.250Z,33.19
2017-12-20T12:31:18.189Z,29.41
2017-12-20T12:32:19.987Z,25.32
2017-12-20T12:33:18.115Z,30.73
2017-12-20T12:34:18.076Z,26.55
2017-12-20T12:35:18.011Z,24.18
2017-12-20T12:36:17.971Z,28.45
2017-12-20T12:37:17.938Z,26.27
2017-12-20T12:38:17.912Z,28.74
2017-12-20T12:39:17.858Z,27.61
2017-12-20T12:40:17.804Z,31.10
2017-12-20T12:41:17.766Z,27.12
2017-12-20T12:42:17.711Z,24.08
2017-12-20T12:43:17.683Z,27.50
2017-12-20T12:44:17.652Z,28.17
2017-12-20T12:45:17.601Z,30.06
2017-12-20T12:46:17.551Z,28.37
2017-12-20T12:47:17.518Z,34.33
2017-12-20T12:48:17.489Z,28.64
2017-12-20T12:49:17.428Z,28.74
2017-12-20T12:50:17.377Z,30.63
2017-12-20T12:51:17.350Z,28.83
2017-12-20T12:52:17.297Z,27.98
2017-12-20T12:53:17.246Z,27.98
2017-12-20T12:54:17.220Z,29.59
2017-12-20T12:55:17.176Z,22.85